Airfield :
LOGIN :

Register | Disclaimer

   EN    FR    IT 

 










Legend :    VFR   Marginal VFR   IFR   Intensive IFR   Very Intensive IFR
Visi :
Ceiling :
>= 8 km
>= 3000ft
5 to 8 km
1000 to 3000 ft
1500m to 5 km
500 to 1000 ft
800 to 1500m
200 to 500 ft
< 800m
< 200 ft
Symbols :   Thunderstorms  Fog  Heavy snow  Heavy precipitations  Wind > 20 kt
SIGMETs :     Misc.  Thunderstorms  Icing  Turbulence  Mountain Waves  Volcanic Ashes






- Airport Elevation : 231 ft
- IATA code : WTN


EGXW - RAF Waddington

CURRENT METAR :
  • 250350Z AUTO 26007KT 6000 -RA BKN016/// SCT080/// 14/13 Q1014

EXPIRED METARs :
  • 250250Z AUTO 23007KT 9999 SCT028/// BKN080/// 15/12 Q1015
  • 250150Z AUTO 22004KT 9999 BKN027/// SCT039/// 16/12 Q1015 RERA

TAF TAF EGXW
Valid from the 24 at 21:00 until the 25 at 15:00 UTC


241932Z 2421/2515 24005KT 9999 FEW025
BECMG 2422/2501 BKN022
TEMPO 2501/2503 -RA BKN012
BECMG 2503/2506 BKN012
PROB40
TEMPO 2504/2510 4000 RA BKN004
PROB30
TEMPO 2510/2515 4000 RADZ



MET'MAP, your aeronautical weather chart ! - Copyright ORBIFLY December 2007 - Disclaimer

ORBIFLY MET'MAP TEAM :

Programming & Development : Alexandra Zaïnal
Concept & original design : Baudouin d'Aumeries
Assistance for programming : Marc-Olivier Méhu
Technical & hardware support : Manuel Goepfert

Contact : metmap@orbifly.com




SOURCES & CREDITS :

   NOAA